Smith Valley, Nevada Weather observations

Data are for 10 minute period ending at time listed.
 Day   Time   Solar   Ave.   Ave.  Ave.  Vector  Max.   Baro.   Total    
  of    of     Rad.   Air    Rel.  Wind   Wind   Wind  Press.  Precip.   
Year   Day            Temp.  Hum.  Speed  Dir.   Gust                    
2026   (PST)  Kw/m2    F      %     mph   deg.    mph    mb.     in.     
-------------------------------------------------------------------------
 242    8:30   0.62   65.8    33    1.9   357     3.9   855.2    0.00 
 242    8:40   0.66   67.1    32    2.8    54     6.0   855.2    0.00 
 242    8:50   0.69   67.5    30    3.3    62     5.6   855.2    0.00 
 242    9:00   0.72   68.7    29    2.9   349     6.1   855.2    0.00 
 242    9:10   0.75   69.2    28    3.1    48     5.1   855.3    0.00 
 242    9:20   0.78   70.1    26    2.8   338     6.2   855.3    0.00 
 242    9:30   0.81   70.8    24    3.9   340     6.4   855.3    0.00 
 242    9:40   0.84   70.9    23    4.1   342     6.9   855.3    0.00 
 242    9:50   0.86   71.8    23    2.9   337     6.3   855.4    0.00 
 242   10:00   0.89   72.4    23    5.0   328     8.5   855.3    0.00 
 242   10:10   0.91   72.1    22    3.4    21     9.7   855.4    0.00 
 242   10:20   0.94   73.2    21    2.8   360     6.0   855.3    0.00 
 242   10:30   0.95   73.8    20    4.4    12     9.7   855.2    0.00 
 242   10:40   0.97   74.3    20    2.5    39     8.0   855.2    0.00 
 242   10:50   0.99   74.9    20    3.5    78     7.1   855.2    0.00 
 242   11:00   1.00   74.8    19    3.9    66     7.2   855.1    0.00 
 242   11:10   1.02   75.3    18    2.4   145     5.0   854.9    0.00 
 242   11:20   1.03   75.9    19    3.1    64     7.1   854.8    0.00 
 242   11:30   1.04   76.4    18    2.7   252     7.5   854.7    0.00 
 242   11:40   1.04   77.7    17    2.9   351     6.7   854.5    0.00 
 242   11:50   1.05   77.3    17    4.3   348     9.3   854.4    0.00 
 242   12:00   1.05   77.6    17    3.7    14     9.0   854.4    0.00 
 242   12:10   1.05   78.0    16    4.6    51     9.4   854.3    0.00 
 242   12:20   1.05   78.7    17    4.0    33     7.8   854.2    0.00 
 242   12:30   1.04   79.0    16    4.3     3     7.7   854.1    0.00 
 242   12:40   1.04   80.2    15    2.4    56     5.7   854.1    0.00 
 242   12:50   1.03   80.5    16    4.2    76     9.7   854.0    0.00 
 242   13:00   1.02   80.3    16    4.9    86    12.1   854.0    0.00 
 242   13:10   1.00   79.9    15    3.7    81     7.8   853.9    0.00 
 242   13:20   0.99   80.5    15    2.6   180     5.0   853.8    0.00 
 242   13:30   0.97   81.8    15    2.9   223     5.3   853.6    0.00 
 242   13:40   0.95   82.6    15    2.6   181     6.5   853.5    0.00 
 242   13:50   0.94   82.3    14    3.1    48     6.4   853.3    0.00 
 242   14:00   0.91   82.8    14    2.9    26     6.7   853.2    0.00 
 242   14:10   0.89   83.1    14    3.0    62     7.4   853.0    0.00 
 242   14:20   0.86   82.8    15    3.9    78    10.3   852.9    0.00 
 242   14:30   0.84   82.6    15    3.9    94     6.5   852.7    0.00 
 242   14:40   0.81   83.4    14    5.0    31    10.1   852.6    0.00 
 242   14:50   0.78   83.1    14    4.5    53     9.1   852.4    0.00 
 242   15:00   0.75   83.3    14    3.3    18     5.7   852.3    0.00 
 242   15:10   0.72   83.4    14    4.4    32    10.7   852.2    0.00 
 242   15:20   0.68   83.2    14    4.8    17    12.3   852.1    0.00 
 242   15:30   0.65   83.2    13    2.9    46     5.6   852.1    0.00 
 242   15:40   0.61   83.6    14    5.0    44     9.6   852.0    0.00 
 242   15:50   0.58   83.8    14    6.5   356    11.3   852.0    0.00 
 242   16:00   0.54   83.4    13    5.5   360    10.4   852.0    0.00 
 242   16:10   0.50   83.6    13    5.8    10    10.0   851.9    0.00 
 242   16:20   0.47   83.5    14    6.8    34    11.4   851.9    0.00 
 242   16:30   0.43   83.3    14    7.7    19    13.0   851.9    0.00 
 242   16:40   0.39   83.0    14    7.3   353    12.1   851.9    0.00 
 242   16:50   0.35   82.8    14    7.1     9    11.3   851.9    0.00 
 242   17:00   0.32   82.4    14    5.7     3     9.5   851.9    0.00 
 242   17:10   0.28   82.1    14    5.6    13     9.3   851.8    0.00 
 242   17:20   0.24   81.9    15    4.7    24     9.5   851.8    0.00 
 242   17:30   0.21   81.3    15    5.5    15     8.1   851.8    0.00 
 242   17:40   0.17   81.1    15    4.6   357     7.5   851.8    0.00 
 242   17:50   0.11   80.8    15    3.8   340     6.0   851.8    0.00 
 242   18:00   0.03   79.6    16    4.0   349     7.2   851.7    0.00 
 242   18:10   0.02   77.7    18    3.1    14     5.0   851.7    0.00 
 242   18:20   0.01   76.1    19    3.2     6     4.0   851.6    0.00 
 242   18:30   0.01   72.8    28    4.0   303     5.8   851.6    0.00 
 242   18:40   0.00   70.5    28    3.3   318     5.0   851.5    0.00 
 242   18:50   0.00   68.5    34    3.3   295     4.1   851.6    0.00 
 242   19:00   0.00   66.5    36    3.3   297     4.2   851.6    0.00 
 242   19:10   0.00   65.8    35    4.2   292     5.5   851.7    0.00 
 242   19:20   0.00   65.9    33    3.4   309     4.9   851.7    0.00 
 242   19:30   0.00   69.1    28    2.9   320     4.1   851.9    0.00 
 242   19:40   0.00   69.1    34    3.7   318     5.2   852.0    0.00 
 242   19:50   0.00   67.7    40    3.4   307     4.5   852.0    0.00 
 242   20:00   0.00   67.5    41    3.2   300     4.1   852.1    0.00 
 242   20:10   0.00   67.5    37    3.7   325     4.6   852.2    0.00 
 242   20:20   0.00   67.4    37    4.5   319     5.7   852.3    0.00 
 242   20:30   0.00   68.3    37    3.9   309     4.6   852.5    0.00 
 242   20:40   0.00   63.6    49    2.8   294     5.1   852.5    0.00 
 242   20:50   0.00   62.6    48    2.5   292     3.6   852.6    0.00 
 242   21:00   0.00   64.3    40    3.6   340     5.5   852.7    0.00 
 242   21:10   0.00   65.7    33    2.3     4     4.6   852.7    0.00 
 242   21:20   0.00   64.8    32    2.9     5     4.0   852.7    0.00 
 242   21:30   0.00   63.0    40    1.4   257     3.1   852.7    0.00 
 242   21:40   0.00   60.4    42    1.6   308     2.7   852.7    0.00 
 242   21:50   0.00   59.5    44    0.9   289     1.9   852.8    0.00 
 242   22:00   0.00   58.5    47    0.6   284     2.8   852.7    0.00 
 242   22:10   0.00   58.8    44    0.9   330     2.4   852.7    0.00 
 242   22:20   0.00   58.4    50    3.5   189     5.7   852.8    0.00 
 242   22:30   0.00   56.6    61    3.3   186     4.8   852.8    0.00 
 242   22:40   0.00   55.4    64    2.5   186     4.3   852.8    0.00 
 242   22:50   0.00   55.2    62    3.3   152     5.1   852.8    0.00 
 242   23:00   0.00   55.7    54    3.3   142     5.8   852.9    0.00 
 242   23:10   0.00   57.2    47    4.1   130     6.8   853.0    0.00 
 242   23:20   0.00   58.1    40    5.3   152     7.2   853.0    0.00 
 242   23:30   0.00   58.4    41    5.7   172     6.9   853.0    0.00 
 242   23:40   0.00   56.4    48    5.2   198     7.0   853.0    0.00 
 242   23:50   0.00   54.3    58    2.3   199     4.3   853.1    0.00 
 243    0:00   0.00   53.7    59    1.6   148     2.9   853.0    0.00 
 243    0:10   0.00   54.2    56    1.7   136     2.7   853.1    0.00 
 243    0:20   0.00   53.7    58    1.3   109     2.8   853.1    0.00 
 243    0:30   0.00   52.6    61    1.8    90     3.5   853.1    0.00 
 243    0:40   0.00   51.4    64    2.1    95     2.9   853.0    0.00 
 243    0:50   0.00   51.5    64    1.8    80     4.0   853.0    0.00 
 243    1:00   0.00   50.1    65    3.1    73     4.4   853.0    0.00 
 243    1:10   0.00   49.8    62    2.2    89     3.4   853.0    0.00 
 243    1:20   0.00   49.8    60    1.6   112     3.4   852.9    0.00 
 243    1:30   0.00   50.3    60    0.9   137     1.6   852.9    0.00 
 243    1:40   0.00   48.3    70    1.3   248     2.7   852.8    0.00 
 243    1:50   0.00   47.6    72    0.2   288     0.9   852.9    0.00 
 243    2:00   0.00   47.8    71    0.9   248     3.1   852.9    0.00 
 243    2:10   0.00   45.6    78    2.3   255     3.6   853.0    0.00 
 243    2:20   0.00   45.7    80    1.4   273     3.2   853.0    0.00 
 243    2:30   0.00   46.3    76    0.4   321     1.2   852.9    0.00 
 243    2:40   0.00   46.3    74    1.6    50     2.9   852.9    0.00 
 243    2:50   0.00   45.9    73    1.7    63     2.9   853.0    0.00 
 243    3:00   0.00   45.8    72    1.0   240     3.8   852.9    0.00 
 243    3:10   0.00   45.0    73    1.0   226     2.4   852.9    0.00 
 243    3:20   0.00   43.5    79    2.1   244     3.3   852.9    0.00 
 243    3:30   0.00   43.5    81    0.3   289     1.4   852.9    0.00 
 243    3:40   0.00   44.1    76    1.1    44     1.5   852.9    0.00 
 243    3:50   0.00   44.4    74    1.3   197     4.0   852.8    0.00 
 243    4:00   0.00   42.0    85    2.4   199     4.4   852.9    0.00 
 243    4:10   0.00   43.3    82    1.3   202     3.2   852.8    0.00 
 243    4:20   0.00   44.1    80    0.9   183     2.9   852.8    0.00 
 243    4:30   0.00   44.8    77    1.0   111     2.7   852.8    0.00 
 243    4:40   0.00   43.2    80    1.8   140     2.6   852.9    0.00 
 243    4:50   0.00   42.3    82    1.1   210     3.1   852.9    0.00 
 243    5:00   0.00   41.0    86    1.6   203     2.1   852.8    0.00 
 243    5:10   0.00   40.9    87    0.9   115     2.5   852.8    0.00 
 243    5:20   0.00   41.0    86    2.7   108     4.2   852.9    0.00 
 243    5:30   0.00   41.3    84    1.6   138     3.8   852.9    0.00 
 243    5:40   0.01   41.8    82    0.1   124     0.7   852.8    0.00 
 243    5:50   0.05   41.8    82    1.6   248     3.2   852.8    0.00 
 243    6:00   0.07   42.0    85    1.3   136     3.8   852.9    0.00 
 243    6:10   0.11   44.0    79    0.4   152     1.4   853.0    0.00 
 243    6:20   0.14   47.3    69    0.5   192     1.8   853.0    0.00 
 243    6:30   0.18   49.6    64    1.5   204     2.3   853.1    0.00 
 243    6:40   0.21   51.8    57    0.9   206     1.8   853.2    0.00 
 243    6:50   0.25   54.6    53    0.2   203     1.1   853.2    0.00 
 243    7:00   0.28   58.4    49    0.4    72     1.6   853.2    0.00 
 243    7:10   0.32   60.6    46    0.1    48     0.9   853.2    0.00 
 243    7:20   0.35   62.3    44    0.5    88     1.8   853.1    0.00 
 243    7:30   0.39   63.0    39    0.7    87     1.8   853.0    0.00 
 243    7:40   0.43   64.2    38    0.5    76     2.6   853.0    0.00 
 243    7:50   0.46   64.8    37    0.8    73     2.4   852.9    0.00 
 243    8:00   0.50   65.5    37    0.9    43     2.5   852.8    0.00 
 243    8:10   0.54   66.4    36    1.0    70     2.4   852.7    0.00 
 243    8:20   0.57   66.8    38    2.1   308     3.9   852.6    0.00 

Return to Smith Valley graphs page.


Western Regional Climate Center,wrcc@dri.edu